createdAt,value
2023-04-21T00:01:53.256Z,11.73
2023-04-21T00:04:21.029Z,11.74
2023-04-21T00:06:48.755Z,11.77
2023-04-21T00:09:17.166Z,11.77
2023-04-21T00:11:45.040Z,11.78
2023-04-21T00:14:14.169Z,11.83
2023-04-21T00:16:41.909Z,11.88
2023-04-21T00:19:09.580Z,11.90
2023-04-21T00:21:37.306Z,11.93
2023-04-21T00:24:05.519Z,11.95
2023-04-21T00:26:33.268Z,11.93
2023-04-21T00:29:01.053Z,11.95
2023-04-21T00:31:30.234Z,11.97
2023-04-21T00:33:57.992Z,11.97
2023-04-21T00:36:28.163Z,11.99
2023-04-21T00:38:55.828Z,12.01
2023-04-21T00:41:23.634Z,12.02
2023-04-21T00:44:04.946Z,12.05
2023-04-21T00:46:34.397Z,12.05
2023-04-21T00:49:05.199Z,12.04
2023-04-21T00:51:34.620Z,12.05
2023-04-21T00:54:04.297Z,12.06
2023-04-21T00:56:33.175Z,12.07
2023-04-21T00:59:01.560Z,12.08
2023-04-21T01:01:30.054Z,12.08
2023-04-21T01:04:00.926Z,12.11
2023-04-21T01:06:29.740Z,12.12
2023-04-21T01:08:57.664Z,12.13
2023-04-21T01:11:26.364Z,12.16
2023-04-21T01:13:54.799Z,12.14
2023-04-21T01:16:23.237Z,12.14
2023-04-21T01:18:52.092Z,12.15
2023-04-21T01:21:21.996Z,12.13
2023-04-21T01:23:51.204Z,12.15
2023-04-21T01:26:19.611Z,12.19
2023-04-21T01:28:47.668Z,12.20
2023-04-21T01:31:15.688Z,12.23
2023-04-21T01:33:43.472Z,12.23
2023-04-21T01:36:11.459Z,12.25
2023-04-21T01:38:40.795Z,12.27
2023-04-21T01:41:10.839Z,12.27
2023-04-21T01:43:39.452Z,12.25
2023-04-21T01:46:08.085Z,12.29
2023-04-21T01:48:37.852Z,12.31
2023-04-21T01:51:05.676Z,12.33
2023-04-21T01:53:33.461Z,12.32
2023-04-21T01:56:01.125Z,12.34
2023-04-21T01:58:30.328Z,12.33
2023-04-21T02:00:58.076Z,12.33
2023-04-21T02:03:26.132Z,12.33
2023-04-21T02:05:53.937Z,12.37
2023-04-21T02:08:21.644Z,12.38
2023-04-21T02:10:49.395Z,12.36
2023-04-21T02:13:17.088Z,12.32
2023-04-21T02:15:46.332Z,12.31
2023-04-21T02:18:14.978Z,12.31
2023-04-21T02:20:42.882Z,12.32
2023-04-21T02:23:10.787Z,12.30
2023-04-21T02:25:38.504Z,12.29
2023-04-21T02:28:06.231Z,12.28
2023-04-21T02:30:35.071Z,12.26
2023-04-21T02:33:04.195Z,12.28
2023-04-21T02:35:33.767Z,12.30
2023-04-21T02:38:07.216Z,12.28
2023-04-21T02:40:34.881Z,12.24
2023-04-21T02:43:02.989Z,12.25
2023-04-21T02:45:30.684Z,12.24
2023-04-21T02:47:59.254Z,12.28
2023-04-21T02:50:28.507Z,12.28
2023-04-21T02:52:56.257Z,12.27
2023-04-21T02:55:24.910Z,12.23
2023-04-21T02:57:52.646Z,12.30
2023-04-21T03:00:20.638Z,12.31
2023-04-21T03:02:48.423Z,12.31
2023-04-21T03:05:16.234Z,12.32
2023-04-21T03:07:45.827Z,12.33
2023-04-21T03:10:13.556Z,12.34
2023-04-21T03:12:41.239Z,12.35
2023-04-21T03:15:09.220Z,12.35
2023-04-21T03:17:36.915Z,12.37
2023-04-21T03:20:07.865Z,12.37
2023-04-21T03:22:35.632Z,12.38
2023-04-21T03:25:07.421Z,12.39
2023-04-21T03:27:35.684Z,12.38
2023-04-21T03:30:03.964Z,12.38
2023-04-21T03:32:31.678Z,12.39
2023-04-21T03:34:59.413Z,12.40
2023-04-21T03:37:27.198Z,12.39
2023-04-21T03:39:54.872Z,12.39
2023-04-21T03:42:24.051Z,12.38
2023-04-21T03:44:51.770Z,12.39
2023-04-21T03:47:19.532Z,12.39
2023-04-21T03:49:47.335Z,12.40
2023-04-21T03:52:15.022Z,12.38
2023-04-21T03:54:42.716Z,12.39
2023-04-21T03:57:10.480Z,12.39
2023-04-21T03:59:39.573Z,12.35
2023-04-21T04:02:07.450Z,12.39
2023-04-21T04:04:35.556Z,12.39
2023-04-21T04:07:03.327Z,12.38
2023-04-21T04:09:30.973Z,12.36
2023-04-21T04:11:58.726Z,12.37
2023-04-21T04:14:26.537Z,12.37
2023-04-21T04:16:55.655Z,12.37
2023-04-21T04:19:23.368Z,12.37
2023-04-21T04:21:51.005Z,12.38
2023-04-21T04:24:19.475Z,12.38
2023-04-21T04:26:47.975Z,12.38
2023-04-21T04:29:16.245Z,12.38
2023-04-21T04:31:43.960Z,12.37
2023-04-21T04:34:13.380Z,12.37
2023-04-21T04:36:42.303Z,12.36
2023-04-21T04:39:10.301Z,12.36
2023-04-21T04:41:38.105Z,12.35
2023-04-21T04:44:06.217Z,12.35
2023-04-21T04:46:34.041Z,12.34
2023-04-21T04:49:01.887Z,12.35
2023-04-21T04:51:32.677Z,12.31
2023-04-21T04:54:00.486Z,12.32
2023-04-21T04:56:28.281Z,12.33
2023-04-21T04:58:56.001Z,12.33
2023-04-21T05:01:29.292Z,12.34
2023-04-21T05:03:57.440Z,12.32
2023-04-21T05:06:25.271Z,12.33
2023-04-21T05:08:54.371Z,12.27
2023-04-21T05:11:22.070Z,12.34
2023-04-21T05:13:49.828Z,12.33
2023-04-21T05:16:17.615Z,12.32
2023-04-21T05:18:45.331Z,12.31
2023-04-21T05:21:13.013Z,12.31
2023-04-21T05:23:40.975Z,12.31
2023-04-21T05:26:10.075Z,12.33
2023-04-21T05:28:38.127Z,12.32
2023-04-21T05:31:07.119Z,12.31
2023-04-21T05:33:34.836Z,12.26
2023-04-21T05:36:02.585Z,12.33
2023-04-21T05:38:30.347Z,12.33
2023-04-21T05:40:58.035Z,12.32
2023-04-21T05:43:27.224Z,12.33
2023-04-21T05:45:55.097Z,12.33
2023-04-21T05:48:23.454Z,12.35
2023-04-21T05:50:51.180Z,12.35
2023-04-21T05:53:18.958Z,12.36
2023-04-21T05:55:46.632Z,12.35
2023-04-21T05:58:14.303Z,12.37
2023-04-21T06:00:43.454Z,12.37
2023-04-21T06:03:11.266Z,12.38
2023-04-21T06:05:39.083Z,12.38
2023-04-21T06:08:07.045Z,12.39
2023-04-21T06:10:34.741Z,12.42
2023-04-21T06:13:02.419Z,12.42
2023-04-21T06:15:30.182Z,12.43
2023-04-21T06:17:59.395Z,12.44
2023-04-21T06:20:27.165Z,12.43
2023-04-21T06:22:54.950Z,12.45
2023-04-21T06:25:23.019Z,12.46
2023-04-21T06:27:50.948Z,12.45
2023-04-21T06:30:18.806Z,12.45
2023-04-21T06:32:47.703Z,12.43
2023-04-21T06:35:17.305Z,12.41
2023-04-21T06:37:45.051Z,12.42
2023-04-21T06:40:15.946Z,12.42
2023-04-21T06:42:43.857Z,12.44
2023-04-21T06:45:12.427Z,12.45
2023-04-21T06:47:40.155Z,12.48
2023-04-21T06:50:08.921Z,12.47
2023-04-21T06:52:38.003Z,12.47
2023-04-21T06:55:06.891Z,12.49
2023-04-21T06:57:34.779Z,12.52
2023-04-21T07:00:02.612Z,12.55
2023-04-21T07:02:30.398Z,12.55
2023-04-21T07:04:58.139Z,12.55
2023-04-21T07:07:25.928Z,12.55
2023-04-21T07:09:55.100Z,12.58
2023-04-21T07:12:22.983Z,12.64
2023-04-21T07:14:50.838Z,12.66
2023-04-21T07:17:18.544Z,12.66
2023-04-21T07:19:46.344Z,12.68
2023-04-21T07:22:14.031Z,12.71
2023-04-21T07:24:41.760Z,12.73
2023-04-21T07:27:10.803Z,12.76
2023-04-21T07:29:38.512Z,12.75
2023-04-21T07:32:06.352Z,12.75
2023-04-21T07:34:34.083Z,12.78
2023-04-21T07:37:01.803Z,12.81
2023-04-21T07:39:29.466Z,12.84
2023-04-21T07:41:57.122Z,12.87
2023-04-21T07:44:26.259Z,12.91
2023-04-21T07:46:53.932Z,12.95
2023-04-21T07:49:21.765Z,12.98
2023-04-21T07:51:50.067Z,13.03
2023-04-21T07:54:17.753Z,13.07
2023-04-21T07:56:45.455Z,13.11
2023-04-21T07:59:13.095Z,13.14
2023-04-21T08:01:42.127Z,13.15
2023-04-21T08:04:10.560Z,13.18
2023-04-21T08:06:38.759Z,13.20
2023-04-21T08:09:06.535Z,13.23
2023-04-21T08:11:34.540Z,13.22
2023-04-21T08:14:03.538Z,13.27
2023-04-21T08:16:31.622Z,13.29
2023-04-21T08:19:01.229Z,13.31
2023-04-21T08:21:31.188Z,13.30
2023-04-21T08:23:59.075Z,13.35
2023-04-21T08:26:27.077Z,13.38
2023-04-21T08:28:55.162Z,13.40
2023-04-21T08:31:23.235Z,13.42
2023-04-21T08:34:01.167Z,13.39
2023-04-21T08:36:32.021Z,13.41
2023-04-21T08:39:00.047Z,13.41
2023-04-21T08:41:27.896Z,13.46
2023-04-21T08:43:55.707Z,13.48
2023-04-21T08:46:25.455Z,13.52
2023-04-21T08:48:55.064Z,13.56
2023-04-21T08:51:24.922Z,13.56
2023-04-21T08:53:55.802Z,13.53
2023-04-21T08:56:25.660Z,13.60
2023-04-21T08:58:53.521Z,13.63
2023-04-21T09:01:21.826Z,13.68
2023-04-21T09:03:49.790Z,13.72
2023-04-21T09:06:17.982Z,13.78
2023-04-21T09:08:56.657Z,13.82
2023-04-21T09:11:24.637Z,13.90
2023-04-21T09:13:52.939Z,13.94
2023-04-21T09:16:22.813Z,13.97
2023-04-21T09:18:51.605Z,13.99
2023-04-21T09:21:20.330Z,14.02
2023-04-21T09:23:49.200Z,14.02
2023-04-21T09:26:19.385Z,14.04
2023-04-21T09:28:49.010Z,14.09
2023-04-21T09:31:19.587Z,14.13
2023-04-21T09:33:57.859Z,14.17
2023-04-21T09:36:28.441Z,14.21
2023-04-21T09:41:33.910Z,14.31
2023-04-21T09:44:04.036Z,14.37
2023-04-21T09:46:34.521Z,14.46
2023-04-21T09:49:03.176Z,14.50
2023-04-21T09:51:42.715Z,14.54
2023-04-21T09:56:57.619Z,14.65
2023-04-21T09:59:27.726Z,14.67
2023-04-21T10:01:57.122Z,14.71
2023-04-21T10:04:26.631Z,14.74
2023-04-21T10:06:54.810Z,14.77
2023-04-21T10:09:23.950Z,14.75
2023-04-21T10:11:53.335Z,14.74
2023-04-21T10:14:21.420Z,14.75
2023-04-21T10:16:57.584Z,14.79
2023-04-21T10:19:26.919Z,14.83
2023-04-21T10:21:56.876Z,14.86
2023-04-21T10:24:24.732Z,14.87
2023-04-21T10:26:55.354Z,14.87
2023-04-21T10:29:40.201Z,14.88
2023-04-21T10:32:11.938Z,14.86
2023-04-21T10:34:40.614Z,14.88
2023-04-21T10:37:19.788Z,14.87
2023-04-21T10:39:53.688Z,14.88
2023-04-21T10:42:28.321Z,14.88
2023-04-21T10:45:04.156Z,14.88
2023-04-21T10:47:37.871Z,14.84
2023-04-21T10:50:17.105Z,14.83
2023-04-21T10:52:46.168Z,14.82
2023-04-21T10:55:15.755Z,14.79
2023-04-21T10:57:46.248Z,14.78
2023-04-21T11:00:17.788Z,14.76
2023-04-21T11:02:45.858Z,14.78
2023-04-21T11:05:13.733Z,14.81
2023-04-21T11:07:41.664Z,14.82
2023-04-21T11:10:11.215Z,14.82
2023-04-21T11:12:40.130Z,14.82
2023-04-21T11:15:11.043Z,14.85
2023-04-21T11:17:39.843Z,14.84
2023-04-21T11:20:09.066Z,14.84
2023-04-21T11:22:38.149Z,14.86
2023-04-21T11:25:06.761Z,14.91
2023-04-21T11:27:34.520Z,14.95
2023-04-21T11:30:04.844Z,15.02
2023-04-21T11:32:35.072Z,15.07
2023-04-21T11:35:04.647Z,15.13
2023-04-21T11:37:32.754Z,15.19
2023-04-21T11:40:01.311Z,15.24
2023-04-21T11:42:29.393Z,15.29
2023-04-21T11:44:57.649Z,15.35
2023-04-21T11:47:26.575Z,15.36
2023-04-21T11:49:57.129Z,15.41
2023-04-21T11:52:26.350Z,15.45
2023-04-21T11:54:57.540Z,15.51
2023-04-21T11:57:26.435Z,15.60
2023-04-21T11:59:54.328Z,15.65
2023-04-21T12:02:23.775Z,15.71
2023-04-21T12:05:06.976Z,15.82
2023-04-21T12:07:36.690Z,15.99
2023-04-21T12:10:10.511Z,16.19
2023-04-21T12:12:38.997Z,16.34
2023-04-21T12:15:07.785Z,16.44
2023-04-21T12:17:39.514Z,16.52
2023-04-21T12:20:10.314Z,16.55
2023-04-21T12:22:38.247Z,16.63
2023-04-21T12:25:06.961Z,16.72
2023-04-21T12:27:34.694Z,16.84
2023-04-21T12:30:03.291Z,17.07
2023-04-21T12:32:31.247Z,17.18
2023-04-21T12:35:00.539Z,17.31
2023-04-21T12:37:29.712Z,17.44
2023-04-21T12:39:57.500Z,17.47
2023-04-21T12:42:25.648Z,17.45
2023-04-21T12:44:53.671Z,17.41
2023-04-21T12:47:21.513Z,17.35
2023-04-21T12:49:49.267Z,17.31
2023-04-21T12:52:16.966Z,17.30
2023-04-21T12:54:46.144Z,17.26
2023-04-21T12:57:13.854Z,17.22
2023-04-21T12:59:41.986Z,17.18
2023-04-21T13:02:10.597Z,17.18
2023-04-21T13:04:39.286Z,17.14
2023-04-21T13:07:07.131Z,17.13
2023-04-21T13:09:34.952Z,17.11
2023-04-21T13:12:04.010Z,17.11
2023-04-21T13:14:31.692Z,17.08
2023-04-21T13:16:59.453Z,17.07
2023-04-21T13:19:28.663Z,17.07
2023-04-21T13:21:56.608Z,17.07
2023-04-21T13:24:25.901Z,17.06
2023-04-21T13:26:53.628Z,17.05
2023-04-21T13:29:22.798Z,17.04
2023-04-21T13:31:50.610Z,17.02
2023-04-21T13:34:18.424Z,17.05
2023-04-21T13:36:46.107Z,17.07
2023-04-21T13:39:14.168Z,17.10
2023-04-21T13:41:41.952Z,17.17
2023-04-21T13:44:09.644Z,17.28
2023-04-21T13:46:39.050Z,17.43
2023-04-21T13:49:07.513Z,17.54
2023-04-21T13:51:35.582Z,17.61
2023-04-21T13:54:03.308Z,17.65
2023-04-21T13:56:31.198Z,17.67
2023-04-21T13:58:59.451Z,17.67
2023-04-21T14:01:27.274Z,17.67
2023-04-21T14:03:57.121Z,17.69
2023-04-21T14:06:25.323Z,17.67
2023-04-21T14:08:53.255Z,17.66
2023-04-21T14:11:21.391Z,17.67
2023-04-21T14:14:07.518Z,17.66
2023-04-21T14:16:36.854Z,17.66
2023-04-21T14:19:06.130Z,17.66
2023-04-21T14:21:34.063Z,17.66
2023-04-21T14:24:01.771Z,17.65
2023-04-21T14:26:29.607Z,17.64
2023-04-21T14:28:57.430Z,17.66
2023-04-21T14:31:25.326Z,17.68
2023-04-21T14:33:53.132Z,17.71
2023-04-21T14:36:22.171Z,17.71
2023-04-21T14:38:51.086Z,17.71
2023-04-21T14:41:18.773Z,17.70
2023-04-21T14:43:47.697Z,17.70
2023-04-21T14:46:17.626Z,17.71
2023-04-21T14:48:45.418Z,17.70
2023-04-21T14:51:13.165Z,17.70
2023-04-21T14:53:42.272Z,17.71
2023-04-21T14:56:10.346Z,17.73
2023-04-21T14:58:37.988Z,17.74
2023-04-21T15:01:06.079Z,17.75
2023-04-21T15:03:33.860Z,17.74
2023-04-21T15:06:01.737Z,17.68
2023-04-21T15:08:29.461Z,17.71
2023-04-21T15:10:58.532Z,17.71
2023-04-21T15:13:26.340Z,17.69
2023-04-21T15:15:53.925Z,17.67
2023-04-21T15:18:21.940Z,17.63
2023-04-21T15:20:49.696Z,17.65
2023-04-21T15:23:17.544Z,17.63
2023-04-21T15:25:45.265Z,17.63
2023-04-21T15:28:14.439Z,17.62
2023-04-21T15:30:42.197Z,17.61
2023-04-21T15:33:11.524Z,17.60
2023-04-21T15:35:39.375Z,17.58
2023-04-21T15:38:07.266Z,17.57
2023-04-21T15:40:37.626Z,17.54
2023-04-21T15:43:11.455Z,17.51
2023-04-21T15:45:41.107Z,17.54
2023-04-21T15:48:09.151Z,17.55
2023-04-21T15:50:37.785Z,17.53
2023-04-21T15:53:06.052Z,17.52
2023-04-21T15:55:33.928Z,17.51
2023-04-21T15:58:01.816Z,17.48
2023-04-21T16:00:29.660Z,17.46
2023-04-21T16:02:59.689Z,17.48
2023-04-21T16:05:29.158Z,17.48
2023-04-21T16:07:57.173Z,17.48
2023-04-21T16:10:24.818Z,17.47
2023-04-21T16:12:52.588Z,17.46
2023-04-21T16:15:24.252Z,17.46
2023-04-21T16:17:52.884Z,17.45
2023-04-21T16:20:22.182Z,17.45
2023-04-21T16:22:50.313Z,17.44
2023-04-21T16:25:19.136Z,17.43
2023-04-21T16:27:46.915Z,17.42
2023-04-21T16:30:14.734Z,17.41
2023-04-21T16:32:42.460Z,17.42
2023-04-21T16:35:11.557Z,17.42
2023-04-21T16:37:42.707Z,17.43
2023-04-21T16:40:11.577Z,17.42
2023-04-21T16:42:39.673Z,17.41
2023-04-21T16:45:08.427Z,17.43
2023-04-21T16:47:41.732Z,17.43
2023-04-21T16:50:10.580Z,17.41
2023-04-21T16:52:38.204Z,17.41
2023-04-21T16:55:08.179Z,17.36
2023-04-21T17:00:00.125Z,17.36
2023-04-21T17:02:27.908Z,17.33
2023-04-21T17:04:55.681Z,17.33
2023-04-21T17:07:23.443Z,17.31
2023-04-21T17:09:51.782Z,17.26
2023-04-21T17:12:19.828Z,17.29
2023-04-21T17:14:48.485Z,17.29
2023-04-21T17:17:17.757Z,17.26
2023-04-21T17:19:45.703Z,17.25
2023-04-21T17:22:13.447Z,17.26
2023-04-21T17:24:52.505Z,17.30
2023-04-21T17:27:21.409Z,17.31
2023-04-21T17:29:49.383Z,17.31
2023-04-21T17:32:18.703Z,17.31
2023-04-21T17:34:46.667Z,17.29
2023-04-21T17:37:14.438Z,17.31
2023-04-21T17:39:42.179Z,17.30
2023-04-21T17:42:09.919Z,17.29
2023-04-21T17:44:37.927Z,17.28
2023-04-21T17:47:08.290Z,17.28
2023-04-21T17:49:37.716Z,17.29
2023-04-21T17:52:05.819Z,17.29
2023-04-21T17:54:33.439Z,17.32
2023-04-21T17:57:01.609Z,17.32
2023-04-21T17:59:29.402Z,17.33
2023-04-21T18:01:57.869Z,17.32
2023-04-21T18:04:27.328Z,17.31
2023-04-21T18:06:56.547Z,17.28
2023-04-21T18:09:25.340Z,17.27
2023-04-21T18:11:53.103Z,17.30
2023-04-21T18:14:21.350Z,17.28
2023-04-21T18:16:49.076Z,17.24
2023-04-21T18:19:18.318Z,17.18
2023-04-21T18:21:46.087Z,17.14
2023-04-21T18:24:15.259Z,17.01
2023-04-21T18:26:43.142Z,16.87
2023-04-21T18:29:10.801Z,16.75
2023-04-21T18:31:39.311Z,16.66
2023-04-21T18:34:08.698Z,16.62
2023-04-21T18:36:37.796Z,16.62
2023-04-21T18:39:06.386Z,16.61
2023-04-21T18:41:35.491Z,16.59
2023-04-21T18:44:03.485Z,16.57
2023-04-21T18:46:31.260Z,16.53
2023-04-21T18:48:59.070Z,16.47
2023-04-21T18:51:31.006Z,16.44
2023-04-21T18:53:59.006Z,16.43
2023-04-21T18:56:26.923Z,16.38
2023-04-21T18:58:56.711Z,16.38
2023-04-21T19:01:24.749Z,16.35
2023-04-21T19:03:53.124Z,16.32
2023-04-21T19:06:21.157Z,16.29
2023-04-21T19:08:51.169Z,16.27
2023-04-21T19:11:18.856Z,16.23
2023-04-21T19:13:48.147Z,16.20
2023-04-21T19:16:17.345Z,16.14
2023-04-21T19:18:45.345Z,16.19
2023-04-21T19:21:13.693Z,16.20
2023-04-21T19:23:41.849Z,16.21
2023-04-21T19:26:10.007Z,16.15
2023-04-21T19:28:37.720Z,16.17
2023-04-21T19:31:05.676Z,16.16
2023-04-21T19:33:34.792Z,16.16
2023-04-21T19:36:03.325Z,16.12
2023-04-21T19:38:31.075Z,16.09
2023-04-21T19:40:58.842Z,16.10
2023-04-21T19:43:26.759Z,16.08
2023-04-21T19:45:54.718Z,16.05
2023-04-21T19:48:22.722Z,16.04
2023-04-21T19:50:51.876Z,16.01
2023-04-21T19:53:19.620Z,16.02
2023-04-21T19:55:48.648Z,16.02
2023-04-21T19:58:28.156Z,15.99
2023-04-21T20:01:05.178Z,16.02
2023-04-21T20:03:33.174Z,15.99
2023-04-21T20:06:04.712Z,16.00
2023-04-21T20:08:32.477Z,15.97
2023-04-21T20:11:00.207Z,15.93
2023-04-21T20:13:27.965Z,15.91
2023-04-21T20:15:57.378Z,15.84
2023-04-21T20:18:25.198Z,15.81
2023-04-21T20:20:52.992Z,15.78
2023-04-21T20:23:22.214Z,15.71
2023-04-21T20:25:49.934Z,15.71
2023-04-21T20:28:17.629Z,15.69
2023-04-21T20:30:45.625Z,15.66
2023-04-21T20:33:13.392Z,15.66
2023-04-21T20:35:44.126Z,15.64
2023-04-21T20:38:11.965Z,15.63
2023-04-21T20:40:41.194Z,15.60
2023-04-21T20:43:10.267Z,15.56
2023-04-21T20:45:38.761Z,15.45
2023-04-21T20:48:06.734Z,15.42
2023-04-21T20:50:34.526Z,15.38
2023-04-21T20:53:02.341Z,15.36
2023-04-21T20:55:30.157Z,15.36
2023-04-21T20:57:59.600Z,15.35
2023-04-21T21:00:27.616Z,15.33
2023-04-21T21:02:55.524Z,15.28
2023-04-21T21:05:23.592Z,15.29
2023-04-21T21:07:51.343Z,15.29
2023-04-21T21:10:19.226Z,15.28
2023-04-21T21:12:46.963Z,15.25
2023-04-21T21:15:16.163Z,15.22
2023-04-21T21:17:43.984Z,15.17
2023-04-21T21:20:12.449Z,15.13
2023-04-21T21:22:40.227Z,14.92
2023-04-21T21:25:08.433Z,14.68
2023-04-21T21:27:36.200Z,14.59
2023-04-21T21:30:04.091Z,14.50
2023-04-21T21:32:33.343Z,14.43
2023-04-21T21:35:01.121Z,14.34
2023-04-21T21:37:28.898Z,14.35
2023-04-21T21:39:56.635Z,14.37
2023-04-21T21:42:24.365Z,14.36
2023-04-21T21:44:52.040Z,14.37
2023-04-21T21:47:19.696Z,14.41
2023-04-21T21:49:48.826Z,14.37
2023-04-21T21:52:16.549Z,14.30
2023-04-21T21:54:44.271Z,14.22
2023-04-21T21:57:11.947Z,14.22
2023-04-21T21:59:39.789Z,14.21
2023-04-21T22:02:07.693Z,14.24
2023-04-21T22:04:35.924Z,14.25
2023-04-21T22:07:05.176Z,14.18
2023-04-21T22:09:32.925Z,14.02
2023-04-21T22:12:01.108Z,13.93
2023-04-21T22:14:29.928Z,13.89
2023-04-21T22:16:58.980Z,13.82
2023-04-21T22:19:26.689Z,13.97
2023-04-21T22:21:54.385Z,14.01
2023-04-21T22:24:23.472Z,14.06
2023-04-21T22:26:51.090Z,14.10
2023-04-21T22:29:18.926Z,14.14
2023-04-21T22:31:46.736Z,14.15
2023-04-21T22:34:16.684Z,14.17
2023-04-21T22:36:44.468Z,14.17
2023-04-21T22:39:12.182Z,14.16
2023-04-21T22:41:41.244Z,14.14
2023-04-21T22:44:08.984Z,14.14
2023-04-21T22:46:36.716Z,14.11
2023-04-21T22:49:05.210Z,14.11
2023-04-21T22:51:33.237Z,14.08
2023-04-21T22:54:01.415Z,14.05
2023-04-21T22:56:29.961Z,14.04
2023-04-21T22:58:59.154Z,14.02
2023-04-21T23:01:26.916Z,14.02
2023-04-21T23:03:54.815Z,14.00
2023-04-21T23:06:22.708Z,13.98
2023-04-21T23:08:50.471Z,13.91
2023-04-21T23:11:18.184Z,13.93
2023-04-21T23:13:45.931Z,13.90
2023-04-21T23:16:15.157Z,13.88
2023-04-21T23:18:42.988Z,13.85
2023-04-21T23:21:10.856Z,13.79
2023-04-21T23:23:38.585Z,13.80
2023-04-21T23:26:06.646Z,13.76
2023-04-21T23:28:34.334Z,13.75
2023-04-21T23:31:01.998Z,13.68
2023-04-21T23:33:31.594Z,13.67
2023-04-21T23:35:59.346Z,13.63
2023-04-21T23:38:27.108Z,13.59
2023-04-21T23:40:54.754Z,13.54
2023-04-21T23:43:22.580Z,13.52
2023-04-21T23:45:50.533Z,13.48
2023-04-21T23:48:18.289Z,13.45
2023-04-21T23:50:47.485Z,13.43
2023-04-21T23:53:15.384Z,13.40
2023-04-21T23:55:43.260Z,13.38
2023-04-21T23:58:11.063Z,13.36
